My webcam more information My webcam


Thunder radar more information blitzortung!


Rain radar more information rain snow radar


Visit our other weather sites:

Template documentation
and downloads

And another site


You find our weather info also at:

Weather Underground

AWEKAS

Citizen Weather Observer Program (CWOP)

HAMweather, WeatherForYou, PWS Weather


Nearby METAR Reports

   
KTAN - Taunton, Massachusetts, USA
Distance from station: W 5 mi
Updated: Apr 23 2018 12:52 pm
Clear  
Clear  
   Wind: varies 5.8 mph
Wind: varies 5.8 mph
Temperature: 64.4°F
Dew Point: 10.4°F
Humidity: 12%
Barometer: 30.46 inHg
Clouds: Clear
Visibility: 10 mi
Cloud details: Clear
KTAN 231652Z AUTO VRB05KT 10SM CLR 18/M12 A3046 RMK AO2 SLP314 T01781117
KPYM - Plymouth, Massachusetts, USA
Distance from station: ENE 10 mi
Updated: Apr 23 2018 12:52 pm
Clear  
Clear  
   Wind: ENE 9.2 mph
Wind: ENE 9.2 mph
Temperature: 57.2°F
Dew Point: 17.6°F
Humidity: 21%
Barometer: 30.48 inHg
Clouds: Clear
Visibility: 10 mi
Cloud details: Clear
KPYM 231652Z AUTO 06008KT 10SM CLR 14/M08 A3048 RMK AO2 SLP323 T01441078
KEWB - New Bedford, Massachusetts, USA
Distance from station: S 14 mi
Updated: Apr 23 2018 12:53 pm
Clear  
Clear  
   Wind: varies 4.6 mph
Wind: varies 4.6 mph
Temperature: 62.6°F
Dew Point: 21.2°F
Humidity: 20%
Barometer: 30.46 inHg
Clouds: Clear
Visibility: 10 mi
Cloud details: Clear
KEWB 231653Z VRB04KT 10SM CLR 17/M06 A3046 RMK AO2 SLP313 T01671061
KFMH - Falmouth/Otis Ab, Massachusetts, USA
Distance from station: SE 27 mi
Updated: Apr 23 2018 12:55 pm
Clear  
Clear  
   Wind: ENE 9.2 mph<br />Gust to 9.2 mph
Wind: ENE 9.2 mph
Gust to 9.2 mph
Temperature: 57.2°F
Dew Point: 15.8°F
Humidity: 20%
Barometer: 30.49 inHg
Clouds: Clear
Visibility: 10 mi
Cloud details: Clear
KFMH 231655Z AUTO 06008G13KT 10SM CLR 14/M09 A3049 RMK AO2
KBOS - Boston, Massachusetts, USA
Distance from station: N 33 mi
Updated: Apr 23 2018 12:54 pm
Few Clouds  
Few Clouds  
   Wind: ESE 12.7 mph
Wind: ESE 12.7 mph
Temperature: 55.4°F
Dew Point: 21.2°F
Humidity: 26%
Barometer: 30.48 inHg
Clouds: Few Clouds
Visibility: 10 mi
Cloud details: Few Clouds 30000 ft
KBOS 231654Z 11011KT 10SM FEW300 13/M06 A3048 RMK AO2 SLP322 T01331061
KHYA - Hyannis, Massachusetts, USA
Distance from station: ESE 37 mi
Updated: Apr 23 2018 12:56 pm
Clear  
Clear  
   Wind: NE 8.1 mph
Wind: NE 8.1 mph
Temperature: 57.2°F
Dew Point: 21.2°F
Humidity: 25%
Barometer: 30.47 inHg
Clouds: Clear
Visibility: 10 mi
Cloud details: Clear
KHYA 231656Z 04007KT 10SM CLR 14/M06 A3047 RMK AO2 SLP319 T01391056
KMVY - Marthas Vineyard, Massachusetts, USA
Distance from station: SSE 37 mi
Updated: Apr 23 2018 12:53 pm
Clear  
Clear  
   Wind: ENE 10.4 mph
Wind: ENE 10.4 mph
Temperature: 59°F
Dew Point: 19.4°F
Humidity: 21%
Barometer: 30.47 inHg
Clouds: Clear
Visibility: 10 mi
Cloud details: Clear
KMVY 231653Z 06009KT 10SM CLR 15/M07 A3047 RMK AO2 SLP319 T01501072
KCQX - Chatham, Massachusetts, USA
Distance from station: ESE 49 mi
Updated: Apr 23 2018 12:52 pm
Clear  
Clear  
   Wind: ENE 10.4 mph
Wind: ENE 10.4 mph
Temperature: 55.4°F
Dew Point: 19.4°F
Humidity: 24%
Barometer: 30.49 inHg
Clouds: Clear
Visibility: 10 mi
Cloud details: Clear
KCQX 231652Z AUTO 07009KT 10SM CLR 13/M07 A3049 RMK AO2 SLP327 T01331072
 

Script developed by  Saratoga-weather.org Adapted for the template by  Weerstation Leuven

Equipment we use:

Weather-station
Davis Vantage Vue

Weather-program
Meteobridge

Weather-server
TP-LINK TL-MR3020

Provider
Web Hosting By

Davis Vantage Vue

Meteobridge

TP-LINK TL-MR3020

Web Hosting By